Time;durP1;ratioP1;P1;durP2;ratioP2;P2;SDS_P1;SDS_P2;PMS_P1;PMS_P2;Temp;Humidity;BMP_temperature;BMP_pressure;BME280_temperature;BME280_humidity;BME280_pressure;Samples;Min_cycle;Max_cycle;Signal;HPM_P1;HPM_P2
2022/06/27 00:00:25;;;;;;;4.05;3.08;;;17.30;99.90;;;;;;5015612;28;20401;-72
2022/06/27 00:02:50;;;;;;;4.63;2.58;;;17.30;99.90;;;;;;5031615;28;20041;-72
2022/06/27 00:05:16;;;;;;;5.55;2.60;;;17.30;99.90;;;;;;5015162;28;20045;-72
2022/06/27 00:07:42;;;;;;;4.38;2.90;;;17.40;99.90;;;;;;5015225;28;20040;-72
2022/06/27 00:10:09;;;;;;;4.40;2.88;;;17.40;99.90;;;;;;5015103;28;20046;-71
2022/06/27 00:12:36;;;;;;;4.40;3.10;;;17.40;99.90;;;;;;5031552;28;20049;-72
2022/06/27 00:15:03;;;;;;;3.85;2.85;;;17.40;99.90;;;;;;5032033;28;20048;-72
2022/06/27 00:17:28;;;;;;;4.90;2.55;;;17.40;99.90;;;;;;5031431;28;20133;-72
2022/06/27 00:19:54;;;;;;;4.80;3.22;;;17.40;99.90;;;;;;5031708;28;20123;-72
2022/06/27 00:22:20;;;;;;;6.53;3.30;;;17.40;99.90;;;;;;5014962;28;20037;-71
2022/06/27 00:24:46;;;;;;;7.90;3.42;;;17.40;99.90;;;;;;5017399;28;20041;-72
2022/06/27 00:27:12;;;;;;;4.22;3.28;;;17.40;99.90;;;;;;5018987;28;20041;-72
2022/06/27 00:29:38;;;;;;;4.43;2.78;;;17.50;99.90;;;;;;5035570;28;20041;-72
2022/06/27 00:32:04;;;;;;;4.22;3.20;;;17.40;99.90;;;;;;5002539;28;20063;-72
2022/06/27 00:34:30;;;;;;;6.55;3.05;;;17.40;99.90;;;;;;5035447;28;20045;-72
2022/06/27 00:36:56;;;;;;;4.40;3.13;;;17.40;99.90;;;;;;5018888;28;20112;-72
2022/06/27 00:39:22;;;;;;;5.18;3.35;;;17.40;99.90;;;;;;5002568;28;20076;-72
2022/06/27 00:41:47;;;;;;;5.93;3.40;;;17.40;99.90;;;;;;5018681;28;20045;-72
2022/06/27 00:44:33;;;;;;;5.90;3.88;;;17.40;99.90;;;;;;5018697;28;20033;-72
2022/06/27 00:47:00;;;;;;;4.65;3.22;;;17.30;99.90;;;;;;5035182;28;20099;-72
2022/06/27 00:49:26;;;;;;;6.50;3.42;;;17.30;99.90;;;;;;5035212;28;20090;-72
2022/06/27 00:51:52;;;;;;;7.68;3.53;;;17.20;99.90;;;;;;5035099;28;20076;-72
2022/06/27 00:54:18;;;;;;;4.78;3.30;;;17.30;99.90;;;;;;5018570;28;20408;-72
2022/06/27 00:56:44;;;;;;;5.50;3.33;;;17.20;99.90;;;;;;5035229;28;20037;-72
2022/06/27 00:59:09;;;;;;;5.55;3.45;;;17.20;99.90;;;;;;5018548;28;20049;-72
2022/06/27 01:01:35;;;;;;;4.07;3.05;;;17.20;99.90;;;;;;5035117;28;20052;-72
2022/06/27 01:04:01;;;;;;;6.13;3.50;;;17.20;99.90;;;;;;5018437;28;20123;-72
2022/06/27 01:06:29;;;;;;;5.40;3.20;;;17.20;99.90;;;;;;5034822;28;20037;-71
2022/06/27 01:08:56;;;;;;;4.50;3.22;;;17.20;99.90;;;;;;5034667;28;20091;-72
2022/06/27 01:11:21;;;;;;;4.28;3.53;;;17.20;99.90;;;;;;5034674;28;20037;-72
2022/06/27 01:13:47;;;;;;;6.38;3.47;;;17.60;99.90;;;;;;5034689;28;20385;-72
2022/06/27 01:16:14;;;;;;;5.57;3.90;;;17.20;99.90;;;;;;5034851;28;20033;-72
2022/06/27 01:18:40;;;;;;;6.25;3.83;;;17.20;99.90;;;;;;5018097;28;20051;-72
2022/06/27 01:21:19;;;;;;;4.68;3.25;;;17.20;99.90;;;;;;5034686;28;20033;-72
2022/06/27 01:23:45;;;;;;;5.07;3.25;;;17.20;99.90;;;;;;5034486;28;20041;-72
2022/06/27 01:26:11;;;;;;;5.68;3.67;;;17.30;99.90;;;;;;5034435;28;20037;-72
2022/06/27 01:28:37;;;;;;;4.35;3.35;;;17.30;99.90;;;;;;5034747;28;20084;-72
2022/06/27 01:31:02;;;;;;;5.28;3.50;;;17.30;99.90;;;;;;5034148;28;20053;-72
2022/06/27 01:33:28;;;;;;;7.70;4.18;;;17.20;99.90;;;;;;5017840;28;20041;-72
2022/06/27 01:36:41;;;;;;;5.38;3.88;;;17.20;99.90;;;;;;5000315;28;20041;-72
2022/06/27 01:38:40;;;;;;;4.82;3.38;;;17.20;99.90;;;;;;5034106;28;20099;-72
2022/06/27 01:41:06;;;;;;;4.45;3.40;;;17.10;99.90;;;;;;5017633;28;20456;-72
2022/06/27 01:43:32;;;;;;;9.05;4.03;;;17.10;99.90;;;;;;5017729;28;20045;-72
2022/06/27 01:45:57;;;;;;;5.55;4.28;;;17.10;99.90;;;;;;5017819;28;20413;-72
2022/06/27 01:48:24;;;;;;;6.85;3.70;;;17.10;99.90;;;;;;5001309;28;20049;-72
2022/06/27 01:50:51;;;;;;;6.45;3.95;;;17.20;99.90;;;;;;5017476;28;20120;-72
2022/06/27 01:53:17;;;;;;;6.53;4.15;;;17.20;99.90;;;;;;5017847;28;20052;-72
2022/06/27 01:55:43;;;;;;;6.80;3.97;;;17.20;99.90;;;;;;5017536;28;20048;-72
2022/06/27 01:58:10;;;;;;;5.88;3.67;;;17.20;99.90;;;;;;5033735;28;20085;-72
2022/06/27 02:00:36;;;;;;;7.18;3.83;;;17.20;99.90;;;;;;5034107;28;20501;-72
2022/06/27 02:03:02;;;;;;;6.22;4.07;;;17.10;99.90;;;;;;5033624;28;20076;-72
2022/06/27 02:05:28;;;;;;;5.88;4.05;;;17.10;99.90;;;;;;5017299;28;20142;-72
2022/06/27 02:07:56;;;;;;;6.50;4.03;;;17.20;99.90;;;;;;5017229;28;20042;-72
2022/06/27 02:10:22;;;;;;;5.85;3.70;;;17.10;99.90;;;;;;5017157;28;20049;-72
2022/06/27 02:12:49;;;;;;;7.70;4.00;;;17.20;99.90;;;;;;5033841;28;20037;-72
2022/06/27 02:15:15;;;;;;;5.70;3.47;;;17.20;99.90;;;;;;5001020;28;20045;-72
2022/06/27 02:17:40;;;;;;;6.38;4.20;;;17.20;99.90;;;;;;5016989;28;20111;-72
2022/06/27 02:20:07;;;;;;;5.70;4.10;;;17.20;99.90;;;;;;5033393;28;20126;-72
2022/06/27 02:22:33;;;;;;;6.05;3.65;;;17.20;99.90;;;;;;5033377;28;20045;-72
2022/06/27 02:24:58;;;;;;;5.72;4.25;;;17.20;99.90;;;;;;5033355;28;20091;-72
2022/06/27 02:27:24;;;;;;;5.15;3.53;;;17.10;99.90;;;;;;5016828;28;20496;-72
2022/06/27 02:29:50;;;;;;;5.47;3.83;;;17.20;99.90;;;;;;5016614;28;20041;-72
2022/06/27 02:32:16;;;;;;;7.20;4.40;;;17.10;99.90;;;;;;5000792;28;20075;-72
2022/06/27 02:34:42;;;;;;;6.97;4.30;;;17.10;99.90;;;;;;5033444;28;20045;-72
2022/06/27 02:37:09;;;;;;;5.20;3.85;;;17.10;99.90;;;;;;5033230;28;20045;-72
2022/06/27 02:39:37;;;;;;;7.65;3.92;;;17.00;99.90;;;;;;5033127;28;20085;-72
2022/06/27 02:42:04;;;;;;;4.82;3.13;;;17.00;99.90;;;;;;5032936;28;20049;-72
2022/06/27 02:44:31;;;;;;;5.25;3.75;;;17.00;99.90;;;;;;5033008;28;20068;-72
2022/06/27 02:46:57;;;;;;;4.70;3.70;;;16.90;99.90;;;;;;5032528;28;20033;-72
2022/06/27 02:49:23;;;;;;;8.85;4.65;;;17.00;99.90;;;;;;5032956;28;20064;-72
2022/06/27 02:52:02;;;;;;;4.00;3.40;;;17.00;99.90;;;;;;5016378;28;20049;-72
2022/06/27 02:54:46;;;;;;;5.95;4.10;;;17.00;99.90;;;;;;5033067;28;20397;-72
2022/06/27 02:57:21;;;;;;;5.18;3.22;;;17.00;99.90;;;;;;5032974;28;20598;-72
2022/06/27 02:59:50;;;;;;;9.57;4.05;;;17.00;99.90;;;;;;5032732;28;20048;-72
2022/06/27 03:02:17;;;;;;;4.70;3.45;;;17.00;99.90;;;;;;5032708;28;20137;-72
2022/06/27 03:04:43;;;;;;;4.72;3.35;;;16.90;99.90;;;;;;5032565;28;20041;-72
2022/06/27 03:07:08;;;;;;;6.70;4.10;;;17.00;99.90;;;;;;5032709;28;20076;-72
2022/06/27 03:09:34;;;;;;;6.20;4.40;;;17.00;99.90;;;;;;5016094;28;20092;-72
2022/06/27 03:12:00;;;;;;;6.97;4.45;;;17.00;99.90;;;;;;5032348;28;20497;-72
2022/06/27 03:14:26;;;;;;;7.90;3.65;;;16.90;99.90;;;;;;5032492;28;20048;-72
2022/06/27 03:16:51;;;;;;;5.97;4.15;;;17.00;99.90;;;;;;5032343;28;20423;-72
2022/06/27 03:19:17;;;;;;;8.30;4.22;;;16.90;99.90;;;;;;5032325;28;20496;-72
2022/06/27 03:21:43;;;;;;;5.90;4.35;;;16.90;99.90;;;;;;5032209;28;20055;-72
2022/06/27 03:24:08;;;;;;;4.82;3.22;;;16.80;99.90;;;;;;4999513;28;20079;-72
2022/06/27 03:26:34;;;;;;;9.02;4.05;;;16.90;99.90;;;;;;5015970;28;20041;-72
2022/06/27 03:29:02;;;;;;;8.90;4.20;;;16.80;99.90;;;;;;5032136;28;20508;-72
2022/06/27 03:31:28;;;;;;;5.70;3.67;;;16.70;99.90;;;;;;5032152;28;20069;-72
2022/06/27 03:33:54;;;;;;;6.50;3.90;;;16.70;99.90;;;;;;5016115;28;20504;-72
2022/06/27 03:36:20;;;;;;;5.32;3.53;;;16.70;99.90;;;;;;4999532;28;20096;-71
2022/06/27 03:38:46;;;;;;;4.28;3.17;;;16.70;99.90;;;;;;4999682;28;20449;-72
2022/06/27 03:41:12;;;;;;;5.18;3.30;;;16.70;99.90;;;;;;5031893;28;20045;-72
2022/06/27 03:43:38;;;;;;;5.30;3.15;;;16.70;99.90;;;;;;5031943;28;20041;-72
2022/06/27 03:46:03;;;;;;;3.80;2.88;;;16.60;99.90;;;;;;5015591;28;20504;-71
2022/06/27 03:51:13;;;;;;;4.85;2.90;;;16.60;99.90;;;;;;5018188;28;20505;-72
2022/06/27 03:53:39;;;;;;;6.25;2.97;;;16.60;99.90;;;;;;5032148;28;20049;-72
2022/06/27 03:56:04;;;;;;;4.28;2.88;;;16.60;99.90;;;;;;5031718;28;20041;-72
2022/06/27 03:58:30;;;;;;;4.53;2.47;;;16.60;99.90;;;;;;5014688;28;20049;-72
2022/06/27 04:00:56;;;;;;;3.28;2.00;;;16.50;99.90;;;;;;5031737;28;20502;-72
2022/06/27 04:03:21;;;;;;;1.83;1.42;;;16.50;99.90;;;;;;5015287;28;20107;-71
2022/06/27 04:05:47;;;;;;;1.42;1.20;;;16.40;99.90;;;;;;5031724;28;20497;-72
2022/06/27 04:08:13;;;;;;;1.55;1.17;;;16.30;99.90;;;;;;5031678;28;20037;-71
2022/06/27 04:10:39;;;;;;;1.95;1.40;;;16.20;99.90;;;;;;4999146;28;20072;-71
2022/06/27 04:13:05;;;;;;;4.85;1.73;;;16.10;99.90;;;;;;5015156;28;20048;-71
2022/06/27 04:15:30;;;;;;;2.13;1.40;;;16.00;99.90;;;;;;5015294;28;20080;-72
2022/06/27 04:17:56;;;;;;;1.98;1.50;;;15.90;99.90;;;;;;5031585;28;20475;-72
2022/06/27 04:20:22;;;;;;;2.28;1.75;;;15.90;99.90;;;;;;5031550;28;20119;-71
2022/06/27 04:22:48;;;;;;;2.20;1.50;;;15.90;99.90;;;;;;5031492;28;20492;-72
2022/06/27 04:25:13;;;;;;;3.92;1.40;;;15.90;99.90;;;;;;5015061;28;20073;-71
2022/06/27 04:27:39;;;;;;;3.35;1.55;;;15.90;99.90;;;;;;5031531;28;20037;-71
2022/06/27 04:30:06;;;;;;;1.92;1.30;;;15.80;99.90;;;;;;5031331;28;20571;-72
2022/06/27 04:32:32;;;;;;;2.20;1.25;;;15.90;99.90;;;;;;5015049;28;20048;-71
2022/06/27 04:34:57;;;;;;;1.95;1.60;;;15.80;99.90;;;;;;5015066;28;20045;-71
2022/06/27 04:37:23;;;;;;;1.75;1.30;;;15.80;99.90;;;;;;5031381;28;20041;-71
2022/06/27 04:39:49;;;;;;;2.72;1.55;;;15.80;99.90;;;;;;5031384;28;20049;-71
2022/06/27 04:42:15;;;;;;;1.25;1.10;;;15.80;99.90;;;;;;5031389;28;20052;-71
2022/06/27 04:44:42;;;;;;;2.00;1.30;;;15.80;99.90;;;;;;5031631;28;20052;-71
2022/06/27 04:47:09;;;;;;;1.73;1.30;;;15.80;99.90;;;;;;5031333;28;20049;-71
2022/06/27 04:49:36;;;;;;;1.92;1.27;;;15.80;99.90;;;;;;5031329;28;20096;-72
2022/06/27 04:52:03;;;;;;;1.30;1.02;;;15.90;99.90;;;;;;5031520;28;20041;-71
2022/06/27 04:54:29;;;;;;;1.42;0.90;;;15.90;99.90;;;;;;5031320;28;20095;-71
2022/06/27 04:56:55;;;;;;;1.25;1.13;;;15.90;99.90;;;;;;5031227;28;20041;-72
2022/06/27 04:59:21;;;;;;;1.77;0.98;;;15.80;99.90;;;;;;5031473;28;20037;-71
2022/06/27 05:01:50;;;;;;;1.92;1.30;;;15.90;99.90;;;;;;5014887;28;20413;-72
2022/06/27 05:04:21;;;;;;;1.15;1.05;;;15.80;99.90;;;;;;5015218;28;20081;-71
2022/06/27 05:06:48;;;;;;;4.97;1.30;;;15.90;99.90;;;;;;5031424;28;20085;-71
2022/06/27 05:09:14;;;;;;;2.35;1.40;;;15.80;99.90;;;;;;5031371;28;20396;-71
2022/06/27 05:11:41;;;;;;;2.08;1.13;;;15.90;99.90;;;;;;5034332;28;20419;-71
2022/06/27 05:14:07;;;;;;;1.88;1.20;;;15.90;99.90;;;;;;5034711;28;20041;-73
2022/06/27 05:16:36;;;;;;;1.38;1.08;;;15.90;99.90;;;;;;5018458;28;20400;-72
2022/06/27 05:19:02;;;;;;;2.30;1.42;;;16.00;99.90;;;;;;5034701;28;20049;-73
2022/06/27 05:21:28;;;;;;;1.98;1.33;;;16.00;99.90;;;;;;5034862;28;20049;-80
2022/06/27 05:23:55;;;;;;;2.08;1.30;;;16.10;99.90;;;;;;5018364;28;20037;-72
2022/06/27 05:26:20;;;;;;;1.52;1.10;;;16.10;99.90;;;;;;5018021;28;20041;-73
2022/06/27 05:28:46;;;;;;;1.33;1.15;;;16.10;99.90;;;;;;5034759;28;20441;-71
2022/06/27 05:31:12;;;;;;;2.65;1.67;;;16.10;99.90;;;;;;5034598;28;20493;-71
2022/06/27 05:33:39;;;;;;;1.58;1.15;;;16.10;99.90;;;;;;5018373;28;20413;-71
2022/06/27 05:36:05;;;;;;;1.67;1.15;;;16.10;99.90;;;;;;5034741;28;20183;-71
2022/06/27 05:38:31;;;;;;;1.95;1.40;;;16.10;99.90;;;;;;5017880;28;20179;-71
2022/06/27 05:40:58;;;;;;;3.05;1.40;;;16.20;99.90;;;;;;5034299;28;20033;-71
2022/06/27 05:43:24;;;;;;;7.40;1.60;;;16.20;99.90;;;;;;5017573;28;20072;-72
2022/06/27 05:45:49;;;;;;;2.17;1.23;;;16.20;99.90;;;;;;5034098;28;20045;-72
2022/06/27 05:48:15;;;;;;;1.90;1.08;;;16.30;99.90;;;;;;5034382;28;20069;-71
2022/06/27 05:50:41;;;;;;;1.73;1.40;;;16.40;99.90;;;;;;5017538;28;20079;-70
2022/06/27 05:53:07;;;;;;;4.10;1.75;;;16.50;99.90;;;;;;5034004;28;20041;-71
2022/06/27 05:55:33;;;;;;;2.13;1.15;;;16.50;99.90;;;;;;5017474;28;20041;-72
2022/06/27 05:58:00;;;;;;;2.25;1.58;;;16.60;99.90;;;;;;5001080;28;20049;-70
2022/06/27 06:00:27;;;;;;;2.47;1.52;;;16.70;99.90;;;;;;5033970;28;20041;-70
2022/06/27 06:02:57;;;;;;;1.67;1.05;;;16.70;99.90;;;;;;5033742;28;20049;-71
2022/06/27 06:05:23;;;;;;;;;;;16.80;99.90;;;;;;5002066;28;20041;-71
2022/06/27 06:07:50;;;;;;;1.30;1.02;;;16.80;99.90;;;;;;5017320;28;20371;-71
2022/06/27 06:10:16;;;;;;;2.13;1.10;;;16.80;99.90;;;;;;5017309;28;20064;-72
2022/06/27 06:12:42;;;;;;;1.38;1.23;;;16.80;99.90;;;;;;5033682;28;20038;-72
2022/06/27 06:15:08;;;;;;;1.83;1.20;;;16.90;99.90;;;;;;5017449;28;20052;-71
2022/06/27 06:17:36;;;;;;;2.35;1.23;;;16.90;99.90;;;;;;5017029;28;20045;-74
2022/06/27 06:20:05;;;;;;;2.03;1.20;;;16.90;99.90;;;;;;5033764;28;20037;-72
2022/06/27 06:22:31;;;;;;;2.40;1.48;;;16.80;99.90;;;;;;5032606;28;20052;-73
2022/06/27 06:24:58;;;;;;;1.77;1.38;;;16.80;99.90;;;;;;5033358;28;20123;-81
2022/06/27 06:27:23;;;;;;;1.98;1.33;;;16.80;99.90;;;;;;5016820;28;20045;-72
2022/06/27 06:29:49;;;;;;;2.45;1.52;;;16.80;99.90;;;;;;5033444;28;20037;-72
2022/06/27 06:32:15;;;;;;;1.98;1.13;;;16.90;99.90;;;;;;5016987;28;20048;-72
2022/06/27 06:34:42;;;;;;;2.95;1.60;;;16.70;99.90;;;;;;5016576;28;20041;-72
2022/06/27 06:37:09;;;;;;;3.05;1.40;;;16.70;99.90;;;;;;5033113;28;20052;-72
2022/06/27 06:39:36;;;;;;;1.50;1.10;;;16.70;99.90;;;;;;5016974;28;20405;-73
2022/06/27 06:42:02;;;;;;;1.80;1.27;;;16.70;99.90;;;;;;5032853;28;20048;-73
2022/06/27 06:44:28;;;;;;;1.70;1.38;;;16.70;99.90;;;;;;5016429;28;20041;-72
2022/06/27 06:46:55;;;;;;;2.00;1.50;;;16.70;99.90;;;;;;5016671;28;20076;-72
2022/06/27 06:49:21;;;;;;;1.95;1.25;;;16.70;99.90;;;;;;5016507;28;20037;-72
2022/06/27 06:51:47;;;;;;;1.70;1.17;;;16.70;99.90;;;;;;5033077;28;20044;-73
2022/06/27 06:54:15;;;;;;;1.20;1.10;;;16.70;99.90;;;;;;5032757;28;20041;-72
2022/06/27 06:56:41;;;;;;;2.40;1.33;;;16.80;99.90;;;;;;5016608;28;20050;-72
2022/06/27 06:59:07;;;;;;;2.13;1.55;;;16.90;99.90;;;;;;5032998;28;20488;-72
2022/06/27 07:01:35;;;;;;;4.82;1.48;;;17.00;99.90;;;;;;5032636;28;20037;-72
2022/06/27 07:04:02;;;;;;;2.03;1.30;;;17.00;99.90;;;;;;5032945;28;20511;-72
2022/06/27 07:06:29;;;;;;;2.67;1.33;;;17.00;99.90;;;;;;5016255;28;20034;-72
2022/06/27 07:08:57;;;;;;;1.73;1.40;;;17.00;99.90;;;;;;5016395;28;20111;-72
2022/06/27 07:11:28;;;;;;;1.33;1.20;;;17.10;99.90;;;;;;5032520;28;20446;-72
2022/06/27 07:13:55;;;;;;;;;;;17.00;99.90;;;;;;5032921;28;20504;-72
2022/06/27 07:16:21;;;;;;;2.13;1.60;;;17.00;99.90;;;;;;5032744;28;19964;-72
2022/06/27 07:18:48;;;;;;;2.75;1.15;;;17.00;99.90;;;;;;5032463;28;20124;-72
2022/06/27 07:21:16;;;;;;;1.85;1.40;;;16.90;99.90;;;;;;5015889;28;20043;-72
2022/06/27 07:23:42;;;;;;;1.67;1.27;;;16.90;99.90;;;;;;5032312;28;20086;-72
2022/06/27 07:26:09;;;;;;;1.80;1.48;;;16.90;99.90;;;;;;5032232;28;20037;-73
2022/06/27 07:28:35;;;;;;;2.03;1.00;;;16.90;99.90;;;;;;5032532;28;20046;-72
2022/06/27 07:31:01;;;;;;;2.22;1.42;;;17.10;99.90;;;;;;5031976;28;20063;-73
2022/06/27 07:33:28;;;;;;;2.92;1.45;;;16.90;99.90;;;;;;5015834;28;20484;-73
2022/06/27 07:35:54;;;;;;;1.60;1.10;;;16.80;99.90;;;;;;5032285;28;20102;-72
2022/06/27 07:38:22;;;;;;;2.15;1.20;;;16.80;99.90;;;;;;5031983;28;20385;-72
2022/06/27 07:40:48;;;;;;;1.45;0.93;;;16.90;99.90;;;;;;5032261;28;20485;-72
2022/06/27 07:43:15;;;;;;;1.63;1.10;;;16.90;99.90;;;;;;5031893;28;20061;-73
2022/06/27 07:45:41;;;;;;;3.05;1.80;;;17.00;99.90;;;;;;4999385;28;20073;-72
2022/06/27 07:48:07;;;;;;;2.47;1.70;;;17.10;99.90;;;;;;5031891;28;20045;-72
2022/06/27 07:50:36;;;;;;;3.97;1.90;;;17.10;99.90;;;;;;5031813;28;20037;-72
2022/06/27 07:53:13;;;;;;;1.80;1.52;;;17.10;99.90;;;;;;5015683;28;20045;-72
2022/06/27 07:55:40;;;;;;;1.48;1.33;;;17.20;99.90;;;;;;5015342;28;20132;-72
2022/06/27 07:58:07;;;;;;;3.30;1.70;;;17.10;99.90;;;;;;5031777;28;20037;-72
2022/06/27 08:00:33;;;;;;;2.00;1.20;;;17.20;99.90;;;;;;5031700;28;20129;-72
2022/06/27 08:03:36;;;;;;;2.05;1.63;;;17.20;99.90;;;;;;5031576;28;20172;-72
2022/06/27 08:05:46;;;;;;;2.42;1.52;;;17.20;99.90;;;;;;5031611;28;20124;-72
2022/06/27 08:08:11;;;;;;;1.73;1.40;;;17.20;99.90;;;;;;5031557;28;20045;-72
2022/06/27 08:10:37;;;;;;;3.05;1.88;;;17.20;99.90;;;;;;5031628;28;20447;-72
2022/06/27 08:13:03;;;;;;;2.13;1.48;;;17.30;99.90;;;;;;4999188;28;20060;-72
2022/06/27 08:15:29;;;;;;;3.08;1.55;;;17.40;99.90;;;;;;5031872;28;20053;-72
2022/06/27 08:17:58;;;;;;;2.05;1.52;;;17.40;99.90;;;;;;5015385;28;20128;-72
2022/06/27 08:20:23;;;;;;;1.92;1.40;;;17.50;99.90;;;;;;5031554;28;20107;-72
2022/06/27 08:22:51;;;;;;;1.77;1.40;;;17.50;99.90;;;;;;5015014;28;20041;-72
2022/06/27 08:25:17;;;;;;;1.83;1.27;;;17.50;99.90;;;;;;5031637;28;20417;-72
2022/06/27 08:27:44;;;;;;;2.63;1.73;;;17.60;99.90;;;;;;5031673;28;20094;-72
2022/06/27 08:30:14;;;;;;;2.75;1.70;;;17.60;99.90;;;;;;5031141;28;20069;-72
2022/06/27 08:32:41;;;;;;;2.83;1.85;;;17.90;99.90;;;;;;4983426;28;20450;-72
2022/06/27 08:35:08;;;;;;;1.88;1.33;;;17.70;99.90;;;;;;5031350;28;20049;-72
2022/06/27 08:37:34;;;;;;;2.97;1.77;;;17.50;99.90;;;;;;5031388;28;20046;-72
2022/06/27 08:40:01;;;;;;;2.20;1.65;;;17.80;99.90;;;;;;5031262;28;20049;-72
2022/06/27 08:42:29;;;;;;;2.20;1.65;;;17.90;99.90;;;;;;5031438;28;20049;-73
2022/06/27 08:44:57;;;;;;;3.10;2.08;;;18.00;99.90;;;;;;5015732;28;20506;-72
2022/06/27 08:47:23;;;;;;;2.20;1.65;;;18.00;99.90;;;;;;5035210;28;20042;-72
2022/06/27 08:49:52;;;;;;;2.47;1.88;;;18.00;99.90;;;;;;5018727;28;20119;-72
2022/06/27 08:52:19;;;;;;;2.55;1.85;;;18.00;99.90;;;;;;5035103;28;20072;-72
2022/06/27 08:54:45;;;;;;;3.03;1.95;;;18.00;99.90;;;;;;5035028;28;20042;-72
2022/06/27 08:57:11;;;;;;;5.22;2.10;;;17.90;99.90;;;;;;5035011;28;20045;-72
2022/06/27 08:59:37;;;;;;;2.42;1.70;;;17.90;99.90;;;;;;5035070;28;20045;-72
2022/06/27 09:02:04;;;;;;;3.28;2.08;;;17.90;99.90;;;;;;5018564;28;20087;-72
2022/06/27 09:04:37;;;;;;;3.03;2.08;;;17.90;99.90;;;;;;5018423;28;20042;-72
2022/06/27 09:07:04;;;;;;;4.28;2.30;;;18.00;99.90;;;;;;5034897;28;20037;-72
2022/06/27 09:09:30;;;;;;;3.55;2.28;;;17.90;99.90;;;;;;5002155;28;20046;-72
2022/06/27 09:11:56;;;;;;;3.08;1.95;;;17.90;99.90;;;;;;5034654;28;20050;-72
2022/06/27 09:14:35;;;;;;;2.53;1.83;;;17.90;99.90;;;;;;5034703;28;20100;-72
2022/06/27 09:17:04;;;;;;;2.42;1.60;;;17.90;99.90;;;;;;5034861;28;20048;-72
2022/06/27 09:19:55;;;;;;;3.00;1.83;;;17.90;99.90;;;;;;5034866;28;20481;-72
2022/06/27 09:22:28;;;;;;;2.92;1.88;;;17.90;99.90;;;;;;5018044;28;20048;-72
2022/06/27 09:25:14;;;;;;;3.08;1.95;;;18.00;99.90;;;;;;5034813;28;20040;-72
2022/06/27 09:27:46;;;;;;;2.63;1.70;;;17.90;99.90;;;;;;5018249;28;20124;-72
2022/06/27 09:30:17;;;;;;;2.90;1.95;;;17.90;99.90;;;;;;5034492;28;20096;-72
2022/06/27 09:32:43;;;;;;;2.78;1.83;;;17.80;99.90;;;;;;5034631;28;20420;-72
2022/06/27 09:35:27;;;;;;;2.80;1.70;;;17.80;99.90;;;;;;5034329;28;20057;-72
2022/06/27 09:37:58;;;;;;;1.73;1.23;;;17.80;99.90;;;;;;5034294;28;20041;-72
2022/06/27 09:40:27;;;;;;;2.72;1.80;;;17.70;99.90;;;;;;5034864;28;20049;-72
2022/06/27 09:42:55;;;;;;;2.35;1.83;;;17.60;99.90;;;;;;5034122;28;20103;-72
2022/06/27 09:45:28;;;;;;;4.50;2.00;;;17.60;99.90;;;;;;5034450;28;20444;-72
2022/06/27 09:47:58;;;;;;;2.90;2.03;;;17.60;99.90;;;;;;5034372;28;20041;-73
2022/06/27 09:50:27;;;;;;;3.38;2.40;;;17.70;99.90;;;;;;5018196;28;20480;-72
2022/06/27 09:52:54;;;;;;;2.67;1.92;;;17.70;99.90;;;;;;5034073;28;20096;-73
2022/06/27 09:55:23;;;;;;;3.55;2.28;;;18.00;99.90;;;;;;5034260;28;20049;-72
2022/06/27 09:57:50;;;;;;;2.72;1.58;;;17.80;99.90;;;;;;5016358;28;20132;-72
2022/06/27 10:00:17;;;;;;;2.95;1.83;;;17.90;99.90;;;;;;5034176;28;20493;-72
2022/06/27 10:02:46;;;;;;;2.55;1.50;;;17.90;99.90;;;;;;5033928;28;20053;-72
2022/06/27 10:05:16;;;;;;;2.85;2.03;;;17.90;99.90;;;;;;5034081;28;20105;-72
2022/06/27 10:07:52;;;;;;;2.13;1.58;;;17.90;99.90;;;;;;5033784;28;20057;-75
2022/06/27 10:10:17;;;;;;;3.70;1.95;;;17.90;99.90;;;;;;5033732;28;20110;-71
2022/06/27 10:13:02;;;;;;;1.60;1.30;;;17.90;99.90;;;;;;5017573;28;20136;-72
2022/06/27 10:15:30;;;;;;;2.42;1.70;;;17.90;99.90;;;;;;5033756;28;20064;-72
2022/06/27 10:18:01;;;;;;;2.20;1.60;;;18.00;99.90;;;;;;5035692;28;20037;-72
2022/06/27 10:20:28;;;;;;;4.43;1.90;;;18.20;99.90;;;;;;5020363;28;20128;-71
2022/06/27 10:23:03;;;;;;;3.30;1.70;;;18.20;99.90;;;;;;5034305;28;20064;-72
2022/06/27 10:25:29;;;;;;;3.40;2.10;;;18.30;99.90;;;;;;5016829;28;20128;-71
2022/06/27 10:28:10;;;;;;;3.15;2.00;;;18.40;99.90;;;;;;5033290;28;20121;-71
2022/06/27 10:30:42;;;;;;;3.55;1.65;;;18.40;99.90;;;;;;5033205;28;20049;-71
2022/06/27 10:33:24;;;;;;;2.95;1.77;;;18.40;99.90;;;;;;5033305;28;20055;-71
2022/06/27 10:35:55;;;;;;;2.35;1.60;;;18.40;99.90;;;;;;5033281;28;20060;-71
2022/06/27 10:38:23;;;;;;;2.40;1.58;;;18.40;99.90;;;;;;5033442;28;20412;-71
2022/06/27 10:40:50;;;;;;;3.33;1.80;;;18.50;99.90;;;;;;5033225;28;20049;-71
2022/06/27 10:43:52;;;;;;;4.63;1.48;;;18.50;99.90;;;;;;5016616;28;20034;-71
2022/06/27 10:46:18;;;;;;;4.28;1.30;;;18.50;99.90;;;;;;5033339;28;20080;-71
2022/06/27 10:48:53;;;;;;;2.22;1.63;;;18.60;99.90;;;;;;5033075;28;20037;-72
2022/06/27 10:51:19;;;;;;;1.40;1.17;;;18.70;99.90;;;;;;5033317;28;20029;-77
2022/06/27 10:53:46;;;;;;;1.15;1.02;;;18.80;99.90;;;;;;5033270;28;20508;-73
2022/06/27 10:56:31;;;;;;;1.63;1.23;;;18.90;99.90;;;;;;5016697;28;20440;-73
2022/06/27 10:58:58;;;;;;;1.88;1.10;;;19.00;99.90;;;;;;5016363;28;20100;-73
2022/06/27 11:01:24;;;;;;;1.73;1.13;;;19.00;99.90;;;;;;5033026;28;20045;-73
2022/06/27 11:03:51;;;;;;;1.63;1.20;;;19.10;99.90;;;;;;5032773;28;20072;-73
2022/06/27 11:06:17;;;;;;;1.83;0.90;;;19.10;99.90;;;;;;4999912;28;20080;-72
2022/06/27 11:08:46;;;;;;;1.67;1.20;;;19.10;99.90;;;;;;5032330;28;20037;-72
2022/06/27 11:11:16;;;;;;;1.20;1.00;;;19.10;99.90;;;;;;5016414;28;20508;-72
2022/06/27 11:13:43;;;;;;;;;;;19.10;99.90;;;;;;5033176;28;20044;-73
2022/06/27 11:16:14;;;;;;;1.40;1.13;;;19.10;99.90;;;;;;5016065;28;20003;-73
2022/06/27 11:18:51;;;;;;;2.15;1.08;;;19.10;99.90;;;;;;5016272;28;20087;-73
2022/06/27 11:21:39;;;;;;;1.40;0.90;;;19.20;99.90;;;;;;5032680;28;20045;-73
2022/06/27 11:24:10;;;;;;;2.40;0.88;;;19.30;99.90;;;;;;5032345;28;20033;-73
2022/06/27 11:26:49;;;;;;;2.42;0.95;;;19.30;99.90;;;;;;5032286;28;20033;-72
2022/06/27 11:32:13;;;;;;;1.70;0.90;;;19.30;99.90;;;;;;5032140;28;20061;-72
2022/06/27 11:34:40;;;;;;;1.63;1.25;;;19.10;99.90;;;;;;5032214;28;20041;-73
2022/06/27 11:37:12;;;;;;;2.35;1.20;;;19.10;99.90;;;;;;5015697;28;20041;-73
2022/06/27 11:39:39;;;;;;;2.25;1.33;;;19.00;99.90;;;;;;5032166;28;20080;-72
2022/06/27 11:42:10;;;;;;;2.53;1.27;;;19.00;99.90;;;;;;4999174;28;20045;-73
2022/06/27 11:45:10;;;;;;;1.60;1.10;;;19.00;99.90;;;;;;5015660;28;20152;-72
2022/06/27 11:47:39;;;;;;;2.25;1.27;;;19.10;99.90;;;;;;5032352;28;20045;-72
2022/06/27 11:50:06;;;;;;;1.60;0.95;;;19.10;99.90;;;;;;5033256;28;20038;-72
2022/06/27 11:52:43;;;;;;;1.98;1.20;;;19.20;99.90;;;;;;5031917;28;20041;-72
2022/06/27 11:55:10;;;;;;;1.88;1.15;;;19.20;99.90;;;;;;5032475;28;20045;-73
2022/06/27 11:57:37;;;;;;;1.83;1.17;;;19.20;99.90;;;;;;5015438;28;20046;-73
2022/06/27 12:00:05;;;;;;;1.50;0.93;;;19.00;99.90;;;;;;5031834;28;20045;-72
2022/06/27 12:02:34;;;;;;;2.33;1.45;;;19.00;99.90;;;;;;5031709;28;20050;-72
2022/06/27 12:05:03;;;;;;;2.22;1.35;;;19.00;99.90;;;;;;5031700;28;20041;-72
2022/06/27 12:07:29;;;;;;;1.70;1.15;;;19.00;99.90;;;;;;5031975;28;20051;-72
2022/06/27 12:09:55;;;;;;;1.30;1.00;;;18.90;99.90;;;;;;5031696;28;20042;-72
2022/06/27 12:12:26;;;;;;;1.60;1.10;;;18.90;99.90;;;;;;5015186;28;20052;-73
2022/06/27 12:14:53;;;;;;;2.80;0.95;;;18.90;99.90;;;;;;5015443;28;20542;-72
2022/06/27 12:17:20;;;;;;;2.80;1.17;;;18.90;99.90;;;;;;5031593;28;20053;-72
2022/06/27 12:19:46;;;;;;;1.80;1.15;;;18.90;99.90;;;;;;5030834;28;20045;-73
2022/06/27 12:22:18;;;;;;;1.60;1.23;;;19.00;99.90;;;;;;5031442;28;20100;-73
2022/06/27 12:24:45;;;;;;;1.90;1.25;;;19.00;99.90;;;;;;5031566;28;20080;-73
2022/06/27 12:27:10;;;;;;;1.38;1.23;;;19.10;99.90;;;;;;5031505;28;20041;-72
2022/06/27 12:29:36;;;;;;;1.30;1.02;;;19.10;99.90;;;;;;5015156;28;20037;-72
2022/06/27 12:32:02;;;;;;;1.88;1.20;;;19.20;99.90;;;;;;5031249;28;20504;-73
2022/06/27 12:34:28;;;;;;;2.30;1.20;;;19.30;99.90;;;;;;5015264;28;20045;-73
2022/06/27 12:36:54;;;;;;;1.63;1.10;;;19.20;99.90;;;;;;5031395;28;20077;-73
2022/06/27 12:39:20;;;;;;;3.40;1.55;;;19.20;99.90;;;;;;5015167;28;20455;-73
2022/06/27 12:41:46;;;;;;;1.08;0.88;;;19.20;99.90;;;;;;5014831;28;20089;-73
2022/06/27 12:44:12;;;;;;;2.20;1.52;;;19.20;99.90;;;;;;5014933;28;20081;-73
2022/06/27 12:46:38;;;;;;;1.85;1.05;;;19.20;99.90;;;;;;5047925;28;20053;-73
2022/06/27 12:49:03;;;;;;;1.50;1.30;;;19.20;99.90;;;;;;5031239;28;20107;-73
2022/06/27 12:51:29;;;;;;;1.67;1.20;;;19.20;99.90;;;;;;5031242;28;20037;-73
2022/06/27 12:53:56;;;;;;;1.80;1.25;;;19.20;99.90;;;;;;5031280;28;20100;-73
2022/06/27 12:56:23;;;;;;;1.40;0.75;;;19.10;99.90;;;;;;5014805;28;20040;-73